createdAt,value
2022-12-03T00:01:03.435Z,1022.76
2022-12-03T00:05:08.115Z,1022.78
2022-12-03T00:10:08.071Z,1022.78
2022-12-03T00:15:07.806Z,1022.68
2022-12-03T00:20:08.509Z,1022.68
2022-12-03T00:25:08.205Z,1022.75
2022-12-03T00:30:09.436Z,1022.63
2022-12-03T00:35:08.169Z,1022.66
2022-12-03T00:40:07.887Z,1022.61
2022-12-03T00:45:08.591Z,1022.58
2022-12-03T00:50:08.309Z,1022.58
2022-12-03T00:55:07.986Z,1022.58
2022-12-03T01:00:07.641Z,1022.6
2022-12-03T01:05:08.621Z,1022.55
2022-12-03T01:10:08.363Z,1022.57
2022-12-03T01:15:08.085Z,1022.57
2022-12-03T01:20:07.800Z,1022.59
2022-12-03T01:25:08.498Z,1022.6
2022-12-03T01:30:08.200Z,1022.58
2022-12-03T01:35:07.879Z,1022.54
2022-12-03T01:40:08.603Z,1022.55
2022-12-03T01:45:08.592Z,1022.61
2022-12-03T01:50:08.282Z,1022.59
2022-12-03T01:55:07.996Z,1022.54
2022-12-03T02:00:07.709Z,1022.54
2022-12-03T02:05:08.426Z,1022.54
2022-12-03T02:10:08.183Z,1022.49
2022-12-03T02:15:07.895Z,1022.52
2022-12-03T02:20:08.576Z,1022.53
2022-12-03T02:25:08.310Z,1022.52
2022-12-03T02:30:08.025Z,1022.49
2022-12-03T02:35:07.726Z,1022.49
2022-12-03T02:40:08.444Z,1022.49
2022-12-03T02:45:08.449Z,1022.49
2022-12-03T02:50:08.133Z,1022.42
2022-12-03T02:55:07.864Z,1022.34
2022-12-03T03:00:08.555Z,1022.35
2022-12-03T03:05:08.365Z,1022.44
2022-12-03T03:10:08.099Z,1022.32
2022-12-03T03:15:07.796Z,1022.35
2022-12-03T03:20:08.489Z,1022.2
2022-12-03T03:25:08.224Z,1022.27
2022-12-03T03:30:07.916Z,1022.18
2022-12-03T03:35:07.658Z,1022.19
2022-12-03T03:40:08.354Z,1022.16
2022-12-03T03:45:08.056Z,1022.12
2022-12-03T03:50:07.786Z,1022.06
2022-12-03T03:55:08.470Z,1021.99
2022-12-03T04:00:08.184Z,1022.09
2022-12-03T04:05:07.851Z,1021.99
2022-12-03T04:10:08.558Z,1021.95
2022-12-03T04:15:08.232Z,1021.98
2022-12-03T04:20:07.898Z,1021.93
2022-12-03T04:25:18.611Z,1021.93
2022-12-03T04:30:08.323Z,1022.01
2022-12-03T04:35:08.104Z,1022.02
2022-12-03T04:40:07.852Z,1021.94
2022-12-03T04:45:08.593Z,1022.04
2022-12-03T04:50:08.396Z,1022.0
2022-12-03T04:55:08.169Z,1022.04
2022-12-03T05:00:08.119Z,1022.1
2022-12-03T05:05:11.076Z,1021.98
2022-12-03T05:10:03.435Z,1021.97
2022-12-03T05:15:03.674Z,1021.89
2022-12-03T05:20:10.250Z,1021.9
2022-12-03T05:25:02.684Z,1021.92
2022-12-03T05:30:04.283Z,1021.85
2022-12-03T05:35:02.452Z,1021.91
2022-12-03T05:40:03.521Z,1021.78
2022-12-03T05:45:04.147Z,1021.78
2022-12-03T05:50:02.543Z,1021.7
2022-12-03T05:55:03.729Z,1021.72
2022-12-03T06:00:03.824Z,1021.71
2022-12-03T06:05:03.630Z,1021.69
2022-12-03T06:10:04.060Z,1021.65
2022-12-03T06:15:03.233Z,1021.71
2022-12-03T06:20:03.348Z,1021.58
2022-12-03T06:25:08.131Z,1021.59
2022-12-03T06:30:02.775Z,1021.59
2022-12-03T06:35:03.781Z,1021.58
2022-12-03T06:40:04.849Z,1021.61
2022-12-03T06:45:03.399Z,1021.59
2022-12-03T06:50:03.534Z,1021.56
2022-12-03T06:55:03.469Z,1021.59
2022-12-03T07:00:03.756Z,1021.57
2022-12-03T07:05:06.491Z,1021.55
2022-12-03T07:10:03.318Z,1021.53
2022-12-03T07:15:04.380Z,1021.53
2022-12-03T07:20:02.904Z,1021.53
2022-12-03T07:25:03.804Z,1021.53
2022-12-03T07:30:03.970Z,1021.68
2022-12-03T07:35:03.484Z,1021.63
2022-12-03T07:40:03.501Z,1021.63
2022-12-03T07:45:03.309Z,1021.74
2022-12-03T07:50:03.224Z,1021.72
2022-12-03T07:55:04.142Z,1021.74
2022-12-03T08:00:05.185Z,1021.73
2022-12-03T08:05:03.077Z,1021.7
2022-12-03T08:10:04.444Z,1021.7
2022-12-03T08:15:03.846Z,1021.75
2022-12-03T08:20:03.791Z,1021.79
2022-12-03T08:25:11.229Z,1021.84
2022-12-03T08:30:04.077Z,1021.84
2022-12-03T08:35:02.830Z,1021.84
2022-12-03T08:40:04.595Z,1021.82
2022-12-03T08:45:04.799Z,1021.82
2022-12-03T08:50:03.795Z,1021.87
2022-12-03T08:55:03.712Z,1021.87
2022-12-03T09:00:06.022Z,1021.71
2022-12-03T09:05:12.828Z,1021.64
2022-12-03T09:10:03.497Z,1021.64
2022-12-03T09:15:03.380Z,1021.64
2022-12-03T09:20:02.432Z,1021.71
2022-12-03T09:25:03.561Z,1021.66
2022-12-03T09:30:03.436Z,1021.66
2022-12-03T09:35:03.069Z,1021.66
2022-12-03T09:40:03.000Z,1021.71
2022-12-03T09:45:04.291Z,1021.65
2022-12-03T09:50:02.907Z,1021.65
2022-12-03T09:55:04.076Z,1021.64
2022-12-03T10:00:02.295Z,1021.62
2022-12-03T10:05:03.141Z,1021.56
2022-12-03T10:10:02.427Z,1021.57
2022-12-03T10:15:02.442Z,1021.51
2022-12-03T10:20:02.962Z,1021.46
2022-12-03T10:25:02.248Z,1021.39
2022-12-03T10:30:02.443Z,1021.3
2022-12-03T10:35:03.447Z,1021.29
2022-12-03T10:40:03.046Z,1021.27
2022-12-03T10:45:02.196Z,1021.19
2022-12-03T10:50:04.080Z,1021.05
2022-12-03T10:55:03.055Z,1020.95
2022-12-03T11:00:02.488Z,1020.96
2022-12-03T11:05:03.092Z,1020.95
2022-12-03T11:10:02.336Z,1020.79
2022-12-03T11:15:03.398Z,1020.8
2022-12-03T11:20:03.771Z,1020.71
2022-12-03T11:25:03.662Z,1020.66
2022-12-03T11:30:03.177Z,1020.61
2022-12-03T11:35:03.180Z,1020.53
2022-12-03T11:40:02.852Z,1020.5
2022-12-03T11:45:04.136Z,1020.36
2022-12-03T11:50:03.602Z,1020.32
2022-12-03T11:55:03.697Z,1020.29
2022-12-03T12:00:03.380Z,1020.28
2022-12-03T12:05:03.573Z,1020.21
2022-12-03T12:10:02.788Z,1020.16
2022-12-03T12:15:05.792Z,1020.1
2022-12-03T12:20:03.870Z,1020.06
2022-12-03T12:25:04.890Z,1020.08
2022-12-03T12:30:03.802Z,1020.02
2022-12-03T12:35:03.920Z,1019.93
2022-12-03T12:40:03.741Z,1019.89
2022-12-03T12:45:04.798Z,1019.86
2022-12-03T12:50:04.136Z,1019.84
2022-12-03T12:55:05.186Z,1019.8
2022-12-03T13:00:03.802Z,1019.72
2022-12-03T13:05:03.913Z,1019.76
2022-12-03T13:10:03.607Z,1019.64
2022-12-03T13:15:03.398Z,1019.64
2022-12-03T13:20:07.937Z,1019.67
2022-12-03T13:25:02.359Z,1019.55
2022-12-03T13:30:04.164Z,1019.58
2022-12-03T13:35:04.210Z,1019.52
2022-12-03T13:40:03.798Z,1019.51
2022-12-03T13:45:04.178Z,1019.65
2022-12-03T13:50:05.817Z,1019.55
2022-12-03T13:55:04.340Z,1019.55
2022-12-03T14:00:12.623Z,1019.48
2022-12-03T14:05:04.384Z,1019.52
2022-12-03T14:10:03.842Z,1019.58
2022-12-03T14:15:04.232Z,1019.5
2022-12-03T14:20:06.041Z,1019.47
2022-12-03T14:25:02.820Z,1019.42
2022-12-03T14:30:11.361Z,1019.39
2022-12-03T14:35:08.121Z,1019.37
2022-12-03T14:40:06.663Z,1019.32
2022-12-03T14:45:04.149Z,1019.38
2022-12-03T14:50:04.801Z,1019.31
2022-12-03T14:55:03.828Z,1019.36
2022-12-03T15:00:03.182Z,1019.35
2022-12-03T15:05:02.935Z,1019.28
2022-12-03T15:10:04.383Z,1019.35
2022-12-03T15:15:03.943Z,1019.33
2022-12-03T15:20:03.345Z,1019.34
2022-12-03T15:25:03.200Z,1019.43
2022-12-03T15:30:03.554Z,1019.34
2022-12-03T15:35:02.964Z,1019.3
2022-12-03T15:40:02.965Z,1019.27
2022-12-03T15:45:02.307Z,1019.29
2022-12-03T15:50:04.140Z,1019.37
2022-12-03T15:55:02.832Z,1019.38
2022-12-03T16:00:04.838Z,1019.35
2022-12-03T16:05:03.548Z,1019.31
2022-12-03T16:10:05.079Z,1019.31
2022-12-03T16:15:02.377Z,1019.29
2022-12-03T16:20:03.327Z,1019.32
2022-12-03T16:25:02.819Z,1019.25
2022-12-03T16:30:04.419Z,1019.27
2022-12-03T16:35:03.316Z,1019.26
2022-12-03T16:40:04.201Z,1019.15
2022-12-03T16:45:03.868Z,1019.16
2022-12-03T16:50:03.382Z,1019.28
2022-12-03T16:55:03.432Z,1019.14
2022-12-03T17:00:03.074Z,1019.14
2022-12-03T17:05:03.676Z,1019.17
2022-12-03T17:10:04.164Z,1019.29
2022-12-03T17:15:03.067Z,1019.3
2022-12-03T17:20:02.407Z,1019.27
2022-12-03T17:25:04.929Z,1019.29
2022-12-03T17:30:04.432Z,1019.32
2022-12-03T17:35:04.529Z,1019.27
2022-12-03T17:40:04.047Z,1019.22
2022-12-03T17:45:03.701Z,1019.14
2022-12-03T17:50:03.453Z,1019.11
2022-12-03T17:55:11.836Z,1019.02
2022-12-03T18:00:04.363Z,1018.94
2022-12-03T18:05:02.541Z,1018.87
2022-12-03T18:10:05.168Z,1018.88
2022-12-03T18:15:05.582Z,1018.87
2022-12-03T18:20:04.419Z,1018.95
2022-12-03T18:25:03.106Z,1018.93
2022-12-03T18:30:02.474Z,1018.95
2022-12-03T18:35:03.766Z,1018.88
2022-12-03T18:40:12.365Z,1018.87
2022-12-03T18:45:03.528Z,1018.79
2022-12-03T18:50:03.990Z,1018.73
2022-12-03T18:55:03.364Z,1018.66
2022-12-03T19:00:06.936Z,1018.68
2022-12-03T19:05:03.890Z,1018.72
2022-12-03T19:10:07.442Z,1018.69
2022-12-03T19:15:03.040Z,1018.65
2022-12-03T19:20:03.820Z,1018.64
2022-12-03T19:25:05.055Z,1018.73
2022-12-03T19:30:02.487Z,1018.75
2022-12-03T19:35:03.525Z,1018.71
2022-12-03T19:40:05.190Z,1018.77
2022-12-03T19:45:03.168Z,1018.68
2022-12-03T19:50:04.041Z,1018.66
2022-12-03T19:55:02.346Z,1018.73
2022-12-03T20:00:03.579Z,1018.73
2022-12-03T20:05:03.280Z,1018.71
2022-12-03T20:10:03.658Z,1018.67
2022-12-03T20:15:03.262Z,1018.7
2022-12-03T20:20:02.815Z,1018.62
2022-12-03T20:25:04.519Z,1018.62
2022-12-03T20:30:03.634Z,1018.63
2022-12-03T20:35:05.872Z,1018.55
2022-12-03T20:40:04.253Z,1018.64
2022-12-03T20:45:03.905Z,1018.61
2022-12-03T20:50:04.596Z,1018.5
2022-12-03T20:55:03.754Z,1018.48
2022-12-03T21:00:04.094Z,1018.39
2022-12-03T21:05:02.625Z,1018.3
2022-12-03T21:10:04.344Z,1018.42
2022-12-03T21:15:03.477Z,1018.34
2022-12-03T21:20:04.324Z,1018.38
2022-12-03T21:25:03.180Z,1018.41
2022-12-03T21:30:03.257Z,1018.35
2022-12-03T21:35:02.706Z,1018.41
2022-12-03T21:40:04.558Z,1018.29
2022-12-03T21:45:03.489Z,1018.36
2022-12-03T21:50:04.461Z,1018.34
2022-12-03T21:55:02.951Z,1018.3
2022-12-03T22:00:02.925Z,1018.28
2022-12-03T22:05:03.702Z,1018.24
2022-12-03T22:10:04.905Z,1018.19
2022-12-03T22:15:04.004Z,1018.15
2022-12-03T22:20:03.298Z,1018.19
2022-12-03T22:25:04.238Z,1018.21
2022-12-03T22:30:11.912Z,1018.12
2022-12-03T22:35:08.584Z,1018.12
2022-12-03T22:40:08.326Z,1018.02
2022-12-03T22:45:08.043Z,1018.1
2022-12-03T22:50:07.750Z,1018.07
2022-12-03T22:55:08.482Z,1018.08
2022-12-03T23:00:08.230Z,1018.03
2022-12-03T23:05:07.963Z,1018.03
2022-12-03T23:10:07.700Z,1017.94
2022-12-03T23:15:08.410Z,1017.89
2022-12-03T23:20:08.146Z,1017.92
2022-12-03T23:25:07.850Z,1017.95
2022-12-03T23:30:09.108Z,1017.92
2022-12-03T23:35:07.845Z,1017.94
2022-12-03T23:40:08.590Z,1017.92
2022-12-03T23:45:08.293Z,1017.83
2022-12-03T23:50:08.020Z,1017.76
2022-12-03T23:55:07.730Z,1017.84
